Home > Products > Valid Products > TAF

000
FTUS43 KDTX 090903 AAA
TAFDET
TAF AMD
KDET 090903Z 0909/1006 26007KT 6SM -SHSN OVC013
     FM091000 26007KT 2SM -SN OVC007
     FM091400 31012G20KT P6SM SCT025 OVC040
     FM091800 29014G24KT P6SM -SHSN BKN018 OVC028
     FM100000 28012KT 4SM -SHSN OVC018=



000
FTUS43 KDTX 090903 AAA
TAFDET
TAF AMD
KDET 090903Z 0909/1006 26007KT 6SM -SHSN OVC013
     FM091000 26007KT 2SM -SN OVC007
     FM091400 31012G20KT P6SM SCT025 OVC040
     FM091800 29014G24KT P6SM -SHSN BKN018 OVC028
     FM100000 28012KT 4SM -SHSN OVC018=



000
FTUS43 KDTX 090901 AAA
TAFDTW
TAF AMD
KDTW 090901Z 0909/1012 23007KT 6SM -SHSN OVC013
     FM091000 26007KT 2SM -SN OVC007
     FM091400 29012G20KT P6SM SCT025 OVC040
     FM091800 28014G24KT P6SM -SHSN BKN018 OVC028
     FM100000 27012KT 4SM -SHSN OVC018
     FM100600 28011KT P6SM -SHSN SCT018 OVC035=



000
FTUS43 KDTX 090700 AAA
TAFFNT
TAF AMD
KFNT 090700Z 0907/1006 27007KT 2SM -SN OVC015
      TEMPO 0907/0909 1SM -SN OVC007
     FM090900 30007KT 4SM -SHSN BR BKN015 OVC025
     FM091500 30014G20KT 3SM -SHSN BR OVC015
     FM092200 29012KT 1 1/2SM -SHSN BR OVC012=



000
FTUS43 KDTX 090700 AAA
TAFFNT
TAF AMD
KFNT 090700Z 0907/1006 27007KT 2SM -SN OVC015
      TEMPO 0907/0909 1SM -SN OVC007
     FM090900 30007KT 4SM -SHSN BR BKN015 OVC025
     FM091500 30014G20KT 3SM -SHSN BR OVC015
     FM092200 29012KT 1 1/2SM -SHSN BR OVC012=



000
FTUS43 KDTX 090527
TAFDTW
TAF
KDTW 090527Z 0906/1012 26008KT 6SM -SHSN SCT035 OVC045
     FM090800 29008KT 4SM -SHSN OVC015
     FM091400 29012G20KT P6SM SCT025 OVC040
     FM091800 28014G24KT P6SM -SHSN BKN018 OVC028
     FM100000 27012KT 4SM -SHSN OVC018
     FM100600 28011KT P6SM -SHSN SCT018 OVC035=



000
FTUS43 KDTX 090527
TAFDET
TAF
KDET 090527Z 0906/1006 28007KT P6SM OVC045
     FM090800 30007KT 4SM -SHSN OVC015
     FM091400 31012G20KT P6SM SCT025 OVC040
     FM091800 29014G24KT P6SM -SHSN BKN018 OVC028
     FM100000 28012KT 4SM -SHSN OVC018=



000
FTUS43 KDTX 090527
TAFMBS
TAF
KMBS 090527Z 0906/1006 30008KT 1SM -SN BR OVC006
     FM090800 31008KT 3SM -SHSN BR BKN015 OVC023
     FM091400 30014G20KT 3SM -SHSN BR OVC015
     FM092000 29012KT 1 1/2SM -SHSN BR OVC012=



000
FTUS43 KDTX 090527
TAFFNT
TAF
KFNT 090527Z 0906/1006 27007KT 6SM -SHSN SCT025 OVC045
     FM090700 30007KT 4SM -SHSN BR BKN015 OVC025
     FM091500 30014G20KT 3SM -SHSN BR OVC015
     FM092200 29012KT 1 1/2SM -SHSN BR OVC012=



000
FTUS43 KDTX 090332 AAA
TAFFNT
TAF AMD
KFNT 090332Z 0904/0924 26007KT P6SM SCT025 OVC045
     FM090900 29008KT 5SM -SHSN BR BKN015 OVC025
     FM091600 30014G20KT 3SM -SHSN BR OVC015
     FM092200 29012KT 1 1/2SM -SHSN BR OVC012=



000
FTUS43 KDTX 090253 AAA
TAFDTW
TAF AMD
KDTW 090253Z 0903/1006 26005KT P6SM BKN035 OVC045
     FM090800 27006KT P6SM OVC020
      TEMPO 0909/0913 4SM -SHSN OVC015
     FM091400 29012G20KT P6SM BKN025 OVC040
     FM091800 28014G24KT P6SM -SHSN BKN018 OVC028
     FM100000 28012KT 4SM -SHSN OVC018=



000
FTUS43 KDTX 082320
TAFMBS
TAF
KMBS 082320Z 0900/0924 31007KT P6SM BKN025 OVC035
     FM090800 31008KT 5SM -SHSN BR BKN015 OVC022
     FM091400 30014G20KT 3SM -SHSN BR OVC015
     FM092000 29012KT 1 1/2SM -SHSN BR OVC012=



000
FTUS43 KDTX 082320
TAFDTW
TAF
KDTW 082320Z 0900/1006 30007KT P6SM BKN035 OVC045
      TEMPO 0900/0902 3SM -SHRASN OVC030
     FM090800 27006KT P6SM OVC020 PROB30 0909/0913 4SM -SHSN OVC015
     FM091400 29012G20KT P6SM BKN025 OVC040
     FM091800 28014G24KT P6SM -SHSN BKN018 OVC028
     FM100000 28012KT 4SM -SHSN OVC018=



000
FTUS43 KDTX 082320
TAFFNT
TAF
KFNT 082320Z 0900/0924 31007KT P6SM BKN025 OVC035
     FM090900 31008KT 5SM -SHSN BR BKN015 OVC022
     FM091600 30014G20KT 3SM -SHSN BR OVC015
     FM092200 29012KT 1 1/2SM -SHSN BR OVC012=



000
FTUS43 KDTX 082320
TAFDET
TAF
KDET 082320Z 0900/0924 30007KT P6SM BKN035 OVC045
      TEMPO 0900/0902 3SM -SHRASN OVC030
     FM090800 27006KT P6SM OVC020 PROB30 0909/0913 4SM -SHSN OVC015
     FM091400 29012G20KT P6SM BKN025 OVC040
     FM091800 28014G24KT P6SM -SHSN BKN018 OVC028=



000
FTUS43 KDTX 082053 AAA
TAFDTW
TAF AMD
KDTW 082053Z 0821/0924 32005KT P6SM SCT030 OVC070
     FM090100 30007KT P6SM OVC030
     FM090800 27006KT P6SM OVC020 PROB30 0909/0913 4SM -SHSN OVC015
     FM091400 31012G20KT P6SM BKN025 OVC040
     FM091700 31014G24KT 4SM -SHSN OVC018=



000
FTUS43 KDTX 082053 AAA
TAFDTW
TAF AMD
KDTW 082053Z 0821/0924 32005KT P6SM SCT030 OVC070
     FM090100 30007KT P6SM OVC030
     FM090800 27006KT P6SM OVC020 PROB30 0909/0913 4SM -SHSN OVC015
     FM091400 31012G20KT P6SM BKN025 OVC040
     FM091700 31014G24KT 4SM -SHSN OVC018=



000
FTUS43 KDTX 082041 AAB
TAFMBS
TAF AMD
KMBS 082041Z 0821/0918 27005KT P6SM SCT025 OVC080
     FM090000 31007KT P6SM OVC022
     FM090400 31008KT 3SM -SHSN BR OVC012
     FM091000 31012G20KT 1 1/2SM -SHSN OVC008=



000
FTUS43 KDTX 082040 AAA
TAFFNT
TAF AMD
KFNT 082040Z 0821/0918 30005KT P6SM SCT030 OVC060
      TEMPO 0822/0824 BKN030
     FM090000 31007KT P6SM OVC022
     FM090500 31008KT 3SM -SHSN BR OVC012
     FM091300 31012G20KT 2SM -SHSN OVC010=



000
FTUS43 KDTX 082040 AAA
TAFFNT
TAF AMD
KFNT 082040Z 0821/0918 30005KT P6SM SCT030 OVC060
      TEMPO 0822/0824 BKN030
     FM090000 31007KT P6SM OVC022
     FM090500 31008KT 3SM -SHSN BR OVC012
     FM091300 31012G20KT 2SM -SHSN OVC010=



000
FTUS43 KDTX 081913 AAA
TAFMBS
TAF AMD
KMBS 081913Z 0819/0918 27005KT P6SM BKN025 OVC080
     FM082200 31007KT P6SM OVC020
     FM090400 31008KT 3SM -SHSN BR OVC012
     FM091000 31012G20KT 1 1/2SM -SHSN OVC008=



000
FTUS43 KDTX 081913 AAA
TAFMBS
TAF AMD
KMBS 081913Z 0819/0918 27005KT P6SM BKN025 OVC080
     FM082200 31007KT P6SM OVC020
     FM090400 31008KT 3SM -SHSN BR OVC012
     FM091000 31012G20KT 1 1/2SM -SHSN OVC008=



000
FTUS43 KDTX 081911 AAA
TAFDET
TAF AMD
KDET 081911Z 0819/0918 32005KT P6SM SCT025 OVC070
     FM090100 30007KT P6SM OVC030
     FM090800 27006KT P6SM OVC020 PROB30 0909/0913 4SM -SHSN OVC015
     FM091400 31012G20KT P6SM BKN025 OVC040
     FM091700 31014G24KT 4SM -SHSN OVC018=



000
FTUS43 KDTX 081911 AAA
TAFDET
TAF AMD
KDET 081911Z 0819/0918 32005KT P6SM SCT025 OVC070
     FM090100 30007KT P6SM OVC030
     FM090800 27006KT P6SM OVC020 PROB30 0909/0913 4SM -SHSN OVC015
     FM091400 31012G20KT P6SM BKN025 OVC040
     FM091700 31014G24KT 4SM -SHSN OVC018=



000
FTUS43 KDTX 081742 CCA
TAFFNT
TAF COR
KFNT 081742Z 0818/0918 VRB05KT P6SM SCT020 OVC100
      TEMPO 0818/0820 BKN020
     FM082000 30005KT P6SM SCT015 OVC080
      TEMPO 0820/0822 BKN015
     FM082200 31007KT 6SM -SHSN OVC018
     FM090500 31008KT 3SM -SHSN BR OVC012
     FM091300 31012G20KT 2SM -SHSN OVC010=



000
FTUS43 KDTX 081741 CCA
TAFMBS
TAF COR
KMBS 081741Z 0818/0918 33005KT P6SM BKN018 OVC080
     FM082200 31007KT 6SM -SHSN OVC018
     FM090400 31008KT 3SM -SHSN BR OVC012
     FM091000 31012G20KT 1 1/2SM -SHSN OVC008=



000
FTUS43 KDTX 081727
TAFFNT
TAF
KFNT 081727Z 0818/0918 VRB05KT P6SM SCT020 OVC100
     FM082000 30005KT P6SM SCT015 OVC080
      TEMPO 0820/0822 BKN015
     FM082200 31007KT 6SM -SHSN OVC018
     FM090500 31008KT 3SM -SHSN BR OVC012
     FM091300 31012G20KT 2SM -SHSN OVC010=



000
FTUS43 KDTX 081727
TAFDET
TAF
KDET 081727Z 0818/0918 32005KT P6SM SCT025 OVC080
      TEMPO 0818/0820 BKN030
     FM090100 30007KT P6SM OVC030
     FM090800 27006KT P6SM OVC020 PROB30 0909/0913 4SM -SHSN OVC015
     FM091400 31012G20KT P6SM BKN025 OVC040
     FM091700 31014G24KT 4SM -SHSN OVC018=



000
FTUS43 KDTX 081727
TAFDTW
TAF
KDTW 081727Z 0818/0924 32005KT P6SM SCT025 OVC090
     FM090100 30007KT P6SM OVC030
     FM090800 27006KT P6SM OVC020 PROB30 0909/0913 4SM -SHSN OVC015
     FM091400 31012G20KT P6SM BKN025 OVC040
     FM091700 31014G24KT 4SM -SHSN OVC018=



000
FTUS43 KDTX 081727
TAFMBS
TAF
KMBS 081727Z 0818/0918 33005KT P6SM SCT018 OVC080
      TEMPO 0820/0822 BKN018
     FM082200 31007KT 6SM -SHSN OVC018
     FM090400 31008KT 3SM -SHSN BR OVC012
     FM091000 31012G20KT 1 1/2SM -SHSN OVC008=



000
FTUS43 KDTX 081612 AAB
TAFMBS
TAF AMD
KMBS 081612Z 0816/0912 25007KT P6SM BKN120
     FM081900 28007KT P6SM BKN025
     FM090100 30007KT 6SM -SHSN OVC025
     FM090700 27005KT 4SM -SHSN BR OVC015=



000
FTUS43 KDTX 081446 AAA
TAFFNT
TAF AMD
KFNT 081446Z 0815/0912 25006KT P6SM SCT040 BKN120
     FM081800 28006KT P6SM BKN030
     FM090100 30007KT 6SM -SHSN OVC025
     FM090700 27005KT 4SM -SHSN BR OVC015=



000
FTUS43 KDTX 081445 AAA
TAFMBS
TAF AMD
KMBS 081445Z 0815/0912 25007KT P6SM SCT025 BKN120
     FM081600 28007KT P6SM BKN025
     FM090100 30007KT 6SM -SHSN OVC025
     FM090700 27005KT 4SM -SHSN BR OVC015=



000
FTUS43 KDTX 081443 AAA
TAFDTW
TAF AMD
KDTW 081443Z 0815/0918 27005KT P6SM SCT040 BKN120
     FM081800 31006KT P6SM OVC040
     FM090100 30007KT 6SM -SHSN OVC030
     FM090800 27005KT 4SM -SHSN BR OVC015
     FM091400 30010KT P6SM BKN025 OVC040=



000
FTUS43 KDTX 081132
TAFDTW
TAF
KDTW 081132Z 0812/0918 25007KT P6SM SCT040 BKN120
      TEMPO 0812/0816 BKN040 OVC120
     FM081600 30007KT 6SM -SHRA OVC030
     FM090100 30007KT 6SM -SHSN OVC030
     FM090800 27005KT 4SM -SHSN BR OVC015
     FM091400 30010KT P6SM BKN025 OVC040=



000
FTUS43 KDTX 081132
TAFDET
TAF
KDET 081132Z 0812/0912 25007KT P6SM SCT040 BKN120
      TEMPO 0812/0816 BKN040 OVC120
     FM081600 30007KT 6SM -SHRA OVC030
     FM090100 30007KT 6SM -SHSN OVC030
     FM090800 27005KT 4SM -SHSN BR OVC015=



000
FTUS43 KDTX 081132
TAFMBS
TAF
KMBS 081132Z 0812/0912 23007KT P6SM SCT040 BKN120
     FM081400 28007KT P6SM BKN025
     FM090100 30007KT 6SM -SHSN OVC025
     FM090700 27005KT 4SM -SHSN BR OVC015=



000
FTUS43 KDTX 081132
TAFFNT
TAF
KFNT 081132Z 0812/0912 25007KT P6SM SCT040 BKN120
     FM081500 28007KT P6SM BKN025
     FM090100 30007KT 6SM -SHSN OVC025
     FM090700 27005KT 4SM -SHSN BR OVC015=



000
FTUS43 KDTX 080912 AAA
TAFMBS
TAF AMD
KMBS 080912Z 0809/0906 22007KT P6SM SCT035 BKN250
      TEMPO 0809/0811 OVC035
     FM081400 23007KT P6SM BKN025 OVC045
     FM081700 27007KT P6SM SCT025 BKN045
     FM090000 29006KT P6SM -SHSN BKN035=



000
FTUS43 KDTX 080911 AAA
TAFFNT
TAF AMD
KFNT 080911Z 0809/0906 24007KT P6SM SCT060 BKN120
      TEMPO 0809/0811 OVC035
     FM081400 23007KT P6SM BKN025 OVC045
     FM081700 27007KT P6SM SCT025 BKN045
     FM090000 29006KT P6SM -SHSN BKN035=



000
FTUS43 KDTX 080908 AAA
TAFDET
TAF AMD
KDET 080908Z 0809/0906 23007KT P6SM SCT060 BKN120
      TEMPO 0809/0811 OVC035
     FM081400 23007KT P6SM BKN025 OVC050
     FM081800 26007KT P6SM SCT025 BKN050
     FM090200 29006KT P6SM -SHSN SCT035 BKN045=



000
FTUS43 KDTX 080908 AAA
TAFDET
TAF AMD
KDET 080908Z 0809/0906 23007KT P6SM SCT060 BKN120
      TEMPO 0809/0811 OVC035
     FM081400 23007KT P6SM BKN025 OVC050
     FM081800 26007KT P6SM SCT025 BKN050
     FM090200 29006KT P6SM -SHSN SCT035 BKN045=



000
FTUS43 KDTX 080901 AAA
TAFDTW
TAF AMD
KDTW 080901Z 0809/0912 23007KT P6SM SCT060 BKN120
      TEMPO 0809/0811 OVC035
     FM081400 23007KT P6SM BKN025 OVC050
     FM081800 26007KT P6SM SCT025 BKN050
     FM090200 28006KT P6SM -SHSN SCT035 BKN045=



000
FTUS43 KDTX 080535
TAFDET
TAF
KDET 080535Z 0806/0906 25007KT P6SM SCT035 BKN070
      TEMPO 0806/0808 OVC035
     FM081200 24007KT P6SM BKN018 OVC028
     FM081800 27007KT P6SM SCT028 BKN050
     FM090200 29006KT P6SM -SHSN SCT035 BKN045=



000
FTUS43 KDTX 080535
TAFDTW
TAF
KDTW 080535Z 0806/0912 23007KT P6SM SCT035 BKN070
      TEMPO 0806/0808 OVC035
     FM081200 23007KT P6SM BKN018 OVC028
     FM081800 26007KT P6SM SCT028 BKN050
     FM090200 28006KT P6SM -SHSN SCT035 BKN045=



000
FTUS43 KDTX 080535
TAFFNT
TAF
KFNT 080535Z 0806/0906 23007KT P6SM BKN035 BKN080
     FM080800 23007KT P6SM SCT035 BKN100
     FM081100 24007KT P6SM BKN018 OVC028
     FM081700 27007KT P6SM SCT028 BKN045
     FM090000 29006KT P6SM -SHSN BKN035=



000
FTUS43 KDTX 080535
TAFMBS
TAF
KMBS 080535Z 0806/0906 24007KT P6SM OVC035
     FM080800 24006KT P6SM SCT035 BKN100
     FM081100 24007KT P6SM OVC018
     FM081700 27007KT P6SM SCT025 BKN045
     FM090000 29006KT P6SM -SHSN BKN035=



000
FTUS43 KDTX 080535
TAFDTW
TAF
KDTW 080535Z 0806/0912 23007KT P6SM SCT035 BKN070
      TEMPO 0806/0808 OVC035
     FM081200 23007KT P6SM BKN018 OVC028
     FM081800 26007KT P6SM SCT028 BKN050
     FM090200 28006KT P6SM -SHSN SCT035 BKN045=



000
FTUS43 KDTX 080535
TAFMBS
TAF
KMBS 080535Z 0806/0906 24007KT P6SM OVC035
     FM080800 24006KT P6SM SCT035 BKN100
     FM081100 24007KT P6SM OVC018
     FM081700 27007KT P6SM SCT025 BKN045
     FM090000 29006KT P6SM -SHSN BKN035=



000
FTUS43 KDTX 080535
TAFDET
TAF
KDET 080535Z 0806/0906 25007KT P6SM SCT035 BKN070
      TEMPO 0806/0808 OVC035
     FM081200 24007KT P6SM BKN018 OVC028
     FM081800 27007KT P6SM SCT028 BKN050
     FM090200 29006KT P6SM -SHSN SCT035 BKN045=



000
FTUS43 KDTX 080535
TAFFNT
TAF
KFNT 080535Z 0806/0906 23007KT P6SM BKN035 BKN080
     FM080800 23007KT P6SM SCT035 BKN100
     FM081100 24007KT P6SM BKN018 OVC028
     FM081700 27007KT P6SM SCT028 BKN045
     FM090000 29006KT P6SM -SHSN BKN035=



000
FTUS43 KDTX 080339 AAB
TAFMBS
TAF AMD
KMBS 080339Z 0804/0824 21007KT P6SM BKN035 OVC060
     FM081200 23007KT P6SM SCT025 OVC080
     FM081600 28007KT P6SM BKN035=



000
FTUS43 KDTX 080244 AAA
TAFDTW
TAF AMD
KDTW 080244Z 0803/0906 19008KT P6SM SCT035 OVC060
     FM080500 20007KT P6SM SCT028 BKN035
     FM081200 23007KT P6SM SCT028 OVC100
     FM081800 27007KT P6SM BKN045
     FM090000 26006KT P6SM -SHSN OVC035=



000
FTUS43 KDTX 080012 AAA
TAFMBS
TAF AMD
KMBS 080012Z 0800/0824 21010KT P6SM SCT040 OVC090
      TEMPO 0800/0801 -SHRA OVC040
     FM080300 20007KT P6SM SCT028 OVC040
     FM080700 21006KT 6SM HZ OVC028
     FM081300 24007KT P6SM SCT025 OVC080
     FM081600 28007KT P6SM BKN035=



000
FTUS43 KDTX 072320
TAFFNT
TAF
KFNT 072320Z 0800/0824 19011KT P6SM SCT045 OVC100
     FM080300 20007KT P6SM SCT028 OVC040
     FM080700 21006KT 6SM HZ OVC028
     FM081300 24007KT P6SM SCT028 OVC080
     FM081600 28007KT P6SM BKN040=



000
FTUS43 KDTX 072320
TAFDET
TAF
KDET 072320Z 0800/0824 19011KT P6SM SCT045 OVC100
     FM080400 20007KT P6SM SCT028 OVC040
     FM080800 21006KT 6SM HZ OVC028
     FM081400 23007KT P6SM SCT028 OVC100
     FM081800 27007KT P6SM BKN045=



000
FTUS43 KDTX 072320
TAFDTW
TAF
KDTW 072320Z 0800/0906 19011KT P6SM SCT045 OVC100
     FM080400 20007KT P6SM SCT028 OVC040
     FM080800 21006KT 6SM HZ OVC028
     FM081400 23007KT P6SM SCT028 OVC100
     FM081800 27007KT P6SM BKN045
     FM090000 26006KT P6SM -SHSN OVC035=



000
FTUS43 KDTX 072320
TAFMBS
TAF
KMBS 072320Z 0800/0824 19011KT P6SM SCT045 OVC100
     FM080300 20007KT P6SM SCT028 OVC040
     FM080700 21006KT 6SM HZ OVC028
     FM081300 24007KT P6SM SCT025 OVC080
     FM081600 28007KT P6SM BKN035=



000
FTUS43 KDTX 072051 AAB
TAFDTW
TAF AMD
KDTW 072051Z 0721/0824 20014G24KT P6SM OVC090
     FM080100 20010KT P6SM SCT035 OVC050
      TEMPO 0801/0804 -RA OVC030
     FM080400 22007KT P6SM OVC028
     FM081000 23006KT 6SM BR SCT010 OVC100
     FM081600 25005KT P6SM BKN030=



000
FTUS43 KDTX 072051 AAB
TAFDTW
TAF AMD
KDTW 072051Z 0721/0824 20014G24KT P6SM OVC090
     FM080100 20010KT P6SM SCT035 OVC050
      TEMPO 0801/0804 -RA OVC030
     FM080400 22007KT P6SM OVC028
     FM081000 23006KT 6SM BR SCT010 OVC100
     FM081600 25005KT P6SM BKN030=



000
FTUS43 KDTX 071925 AAA
TAFDTW
TAF AMD
KDTW 071925Z 0719/0824 19014G25KT P6SM OVC090
     FM080100 19010KT P6SM SCT035 OVC050
      TEMPO 0801/0804 -RA OVC030
     FM080400 22007KT P6SM OVC028
     FM081000 23006KT 6SM BR SCT010 OVC100
     FM081600 25005KT P6SM BKN030=



000
FTUS43 KDTX 071925 AAA
TAFDTW
TAF AMD
KDTW 071925Z 0719/0824 19014G25KT P6SM OVC090
     FM080100 19010KT P6SM SCT035 OVC050
      TEMPO 0801/0804 -RA OVC030
     FM080400 22007KT P6SM OVC028
     FM081000 23006KT 6SM BR SCT010 OVC100
     FM081600 25005KT P6SM BKN030=



000
FTUS43 KDTX 071729
TAFDTW
TAF
KDTW 071729Z 0718/0824 18012G22KT P6SM OVC090
     FM080100 19008KT P6SM SCT035 OVC050
      TEMPO 0801/0804 -RA OVC030
     FM080400 22007KT P6SM OVC028
     FM081000 23006KT 6SM BR SCT010 OVC100
     FM081600 25005KT P6SM BKN030=



000
FTUS43 KDTX 071729
TAFFNT
TAF
KFNT 071729Z 0718/0818 20012G21KT P6SM OVC080
     FM080000 22008KT P6SM SCT035 OVC050
      TEMPO 0800/0803 -RA OVC035
     FM080300 24007KT P6SM OVC028
     FM081000 23005KT 6SM BR SCT010 OVC100
     FM081600 25005KT 6SM -SHSN OVC025=



000
FTUS43 KDTX 071729
TAFDTW
TAF
KDTW 071729Z 0718/0824 18012G22KT P6SM OVC090
     FM080100 19008KT P6SM SCT035 OVC050
      TEMPO 0801/0804 -RA OVC030
     FM080400 22007KT P6SM OVC028
     FM081000 23006KT 6SM BR SCT010 OVC100
     FM081600 25005KT P6SM BKN030=



000
FTUS43 KDTX 071729
TAFDET
TAF
KDET 071729Z 0718/0818 18012G22KT P6SM OVC090
     FM080100 19008KT P6SM SCT035 OVC050
      TEMPO 0801/0804 -RA OVC030
     FM080400 22007KT P6SM OVC028
     FM081000 23006KT 6SM BR SCT010 OVC100
     FM081600 25005KT P6SM BKN030=



000
FTUS43 KDTX 071729
TAFMBS
TAF
KMBS 071729Z 0718/0818 20012G21KT P6SM OVC080
     FM072200 22010KT P6SM SCT035 OVC050
      TEMPO 0722/0724 -RA OVC035
     FM080000 24007KT P6SM SCT025 OVC030=



000
FTUS43 KDTX 071729
TAFMBS
TAF
KMBS 071729Z 0718/0818 20012G21KT P6SM OVC080
     FM072200 22010KT P6SM SCT035 OVC050
      TEMPO 0722/0724 -RA OVC035
     FM080000 24007KT P6SM SCT025 OVC030=



000
FTUS43 KDTX 071729
TAFFNT
TAF
KFNT 071729Z 0718/0818 20012G21KT P6SM OVC080
     FM080000 22008KT P6SM SCT035 OVC050
      TEMPO 0800/0803 -RA OVC035
     FM080300 24007KT P6SM OVC028
     FM081000 23005KT 6SM BR SCT010 OVC100
     FM081600 25005KT 6SM -SHSN OVC025=



000
FTUS43 KDTX 071729
TAFDET
TAF
KDET 071729Z 0718/0818 18012G22KT P6SM OVC090
     FM080100 19008KT P6SM SCT035 OVC050
      TEMPO 0801/0804 -RA OVC030
     FM080400 22007KT P6SM OVC028
     FM081000 23006KT 6SM BR SCT010 OVC100
     FM081600 25005KT P6SM BKN030=



000
FTUS43 KDTX 071509 AAA
TAFDTW
TAF AMD
KDTW 071509Z 0715/0818 18010KT P6SM BKN120
     FM071700 18012G21KT P6SM OVC090
     FM080100 19008KT P6SM SCT035 OVC070
     FM080400 22007KT P6SM BKN035=



000
FTUS43 KDTX 071125
TAFDET
TAF
KDET 071125Z 0712/0812 19007KT P6SM BKN120
     FM071700 19012G21KT P6SM OVC090
     FM080100 20008KT P6SM SCT035 OVC070
     FM080400 22007KT P6SM BKN035=



000
FTUS43 KDTX 071125
TAFFNT
TAF
KFNT 071125Z 0712/0812 18007KT P6SM BKN100
     FM071700 20012G20KT P6SM OVC080
     FM080000 22008KT P6SM SCT035 OVC070
     FM080300 24007KT P6SM SCT025 BKN035=



000
FTUS43 KDTX 071125
TAFMBS
TAF
KMBS 071125Z 0712/0812 18007KT P6SM OVC100
     FM071700 20012G20KT P6SM OVC080
     FM072200 22010KT P6SM SCT035 OVC050
     FM080100 24007KT P6SM SCT025 OVC035=



000
FTUS43 KDTX 071125
TAFDTW
TAF
KDTW 071125Z 0712/0818 18006KT P6SM BKN120
     FM071700 18012G21KT P6SM OVC090
     FM080100 19008KT P6SM SCT035 OVC070
     FM080400 22007KT P6SM BKN035=



000
FTUS43 KDTX 070900 AAA
TAFDTW
TAF AMD
KDTW 070900Z 0709/0812 18006KT P6SM BKN120
     FM071700 18012G21KT P6SM OVC090
     FM080100 19008KT P6SM SCT035 OVC070
     FM080600 22007KT P6SM BKN035=



000
FTUS43 KDTX 070520
TAFDTW
TAF
KDTW 070520Z 0706/0812 21007KT P6SM BKN120
     FM071700 18012G21KT P6SM OVC090
     FM080100 20008KT P6SM SCT035 OVC070
     FM080600 22007KT P6SM BKN035=



000
FTUS43 KDTX 070520
TAFDET
TAF
KDET 070520Z 0706/0806 22007KT P6SM BKN120
     FM071700 19012G21KT P6SM OVC090
     FM080100 20008KT P6SM SCT035 OVC070=



000
FTUS43 KDTX 070520
TAFMBS
TAF
KMBS 070520Z 0706/0806 22007KT P6SM BKN120
     FM071700 20012G20KT P6SM OVC080
     FM072200 22010KT P6SM SCT035 OVC050
     FM080200 24007KT P6SM SCT025 OVC035=



000
FTUS43 KDTX 070520
TAFFNT
TAF
KFNT 070520Z 0706/0806 22007KT P6SM BKN120
     FM071700 20012G20KT P6SM OVC080
     FM080000 22008KT P6SM SCT035 OVC070
     FM080400 24007KT P6SM SCT025 BKN035=



000
FTUS43 KDTX 070358 AAB
TAFDTW
TAF AMD
KDTW 070358Z 0704/0806 22007KT P6SM SCT035 OVC150
     FM070700 20006KT P6SM BKN120
     FM071600 18012G22KT P6SM OVC100
     FM080200 21008KT P6SM SCT035 OVC070=



000
FTUS43 KDTX 070358 AAB
TAFDTW
TAF AMD
KDTW 070358Z 0704/0806 22007KT P6SM SCT035 OVC150
     FM070700 20006KT P6SM BKN120
     FM071600 18012G22KT P6SM OVC100
     FM080200 21008KT P6SM SCT035 OVC070=



000
FTUS43 KDTX 070203 AAA
TAFDTW
TAF AMD
KDTW 070203Z 0702/0806 21007KT P6SM OVC035
     FM070600 20006KT P6SM BKN035 BKN150
     FM071000 19006KT P6SM SCT035 BKN120
     FM071600 18012G22KT P6SM OVC100
     FM080200 21008KT P6SM SCT035 OVC070=



000
FTUS43 KDTX 070203 AAA
TAFDTW
TAF AMD
KDTW 070203Z 0702/0806 21007KT P6SM OVC035
     FM070600 20006KT P6SM BKN035 BKN150
     FM071000 19006KT P6SM SCT035 BKN120
     FM071600 18012G22KT P6SM OVC100
     FM080200 21008KT P6SM SCT035 OVC070=



000
FTUS43 KDTX 070058 AAA
TAFFNT
TAF AMD
KFNT 070058Z 0701/0724 24007KT P6SM OVC035
     FM070400 22006KT P6SM BKN035
     FM070800 21006KT P6SM SCT045 BKN100
     FM071600 20012G22KT P6SM OVC080
     FM072300 23009KT P6SM SCT025 OVC050=



000
FTUS43 KDTX 070058 AAA
TAFFNT
TAF AMD
KFNT 070058Z 0701/0724 24007KT P6SM OVC035
     FM070400 22006KT P6SM BKN035
     FM070800 21006KT P6SM SCT045 BKN100
     FM071600 20012G22KT P6SM OVC080
     FM072300 23009KT P6SM SCT025 OVC050=



000
FTUS43 KDTX 070016 AAA
TAFMBS
TAF AMD
KMBS 070016Z 0700/0724 25009KT P6SM OVC025
     FM070400 23008KT P6SM SCT025 BKN035
     FM070800 21007KT P6SM SCT035 BKN100
     FM071500 21012G22KT P6SM OVC080
     FM072300 24010KT P6SM SCT025 OVC045=



000
FTUS43 KDTX 070016 AAA
TAFMBS
TAF AMD
KMBS 070016Z 0700/0724 25009KT P6SM OVC025
     FM070400 23008KT P6SM SCT025 BKN035
     FM070800 21007KT P6SM SCT035 BKN100
     FM071500 21012G22KT P6SM OVC080
     FM072300 24010KT P6SM SCT025 OVC045=



000
FTUS43 KDTX 062320
TAFDET
TAF
KDET 062320Z 0700/0724 21006KT P6SM SCT045 BKN120
     FM071600 19012G22KT P6SM OVC100=



000
FTUS43 KDTX 062320
TAFDET
TAF
KDET 062320Z 0700/0724 21006KT P6SM SCT045 BKN120
     FM071600 19012G22KT P6SM OVC100=



000
FTUS43 KDTX 062320
TAFMBS
TAF
KMBS 062320Z 0700/0724 23008KT P6SM SCT035 BKN120
      TEMPO 0701/0704 BKN035
     FM071500 21012G22KT P6SM OVC080
     FM072300 24010KT P6SM SCT025 OVC045=



000
FTUS43 KDTX 062320
TAFFNT
TAF
KFNT 062320Z 0700/0724 23008KT P6SM SCT045 BKN120
      TEMPO 0702/0704 BKN045
     FM071600 20012G22KT P6SM OVC080
     FM072300 23009KT P6SM SCT025 OVC050=



000
FTUS43 KDTX 062320
TAFDTW
TAF
KDTW 062320Z 0700/0806 20006KT P6SM SCT045 BKN120
     FM071600 18012G22KT P6SM OVC100
     FM080200 21008KT P6SM SCT035 OVC070=



000
FTUS43 KDTX 062320
TAFFNT
TAF
KFNT 062320Z 0700/0724 23008KT P6SM SCT045 BKN120
      TEMPO 0702/0704 BKN045
     FM071600 20012G22KT P6SM OVC080
     FM072300 23009KT P6SM SCT025 OVC050=



000
FTUS43 KDTX 062320
TAFMBS
TAF
KMBS 062320Z 0700/0724 23008KT P6SM SCT035 BKN120
      TEMPO 0701/0704 BKN035
     FM071500 21012G22KT P6SM OVC080
     FM072300 24010KT P6SM SCT025 OVC045=



000
FTUS43 KDTX 062320
TAFDTW
TAF
KDTW 062320Z 0700/0806 20006KT P6SM SCT045 BKN120
     FM071600 18012G22KT P6SM OVC100
     FM080200 21008KT P6SM SCT035 OVC070=



000
FTUS43 KDTX 062112 AAA
TAFMBS
TAF AMD
KMBS 062112Z 0621/0718 23014G22KT P6SM FEW030 BKN120
     FM070000 23008KT P6SM SCT028 BKN080
     FM071400 20012KT P6SM OVC080=



000
FTUS43 KDTX 062108 AAA
TAFDTW
TAF AMD
KDTW 062108Z 0621/0724 23012KT P6SM BKN060
     FM062300 20006KT P6SM SCT060 BKN120
     FM071400 20012G22KT P6SM OVC100=



000
FTUS43 KDTX 061732
TAFFNT
TAF
KFNT 061732Z 0618/0718 24012G18KT P6SM BKN060
     FM062000 23006KT P6SM BKN120
     FM071400 20012KT P6SM OVC080=



000
FTUS43 KDTX 061732
TAFDET
TAF
KDET 061732Z 0618/0718 23012KT P6SM FEW015 SCT070
     FM062000 23006KT P6SM BKN120
     FM071400 20012G22KT P6SM OVC100=



000
FTUS43 KDTX 061732
TAFMBS
TAF
KMBS 061732Z 0618/0718 24015G25KT P6SM BKN060 OVC100
     FM062000 23006KT P6SM BKN120
     FM071400 20012KT P6SM OVC080=



000
FTUS43 KDTX 061732
TAFDTW
TAF
KDTW 061732Z 0618/0724 23012KT P6SM SCT015 SCT070
     FM062100 20006KT P6SM BKN120
     FM071400 20012G22KT P6SM OVC100=



000
FTUS43 KDTX 061604 AAA
TAFFNT
TAF AMD
KFNT 061604Z 0616/0712 24012G18KT P6SM BKN060
     FM062000 23006KT P6SM BKN120=



000
FTUS43 KDTX 061604 AAA
TAFMBS
TAF AMD
KMBS 061604Z 0616/0712 24012G20KT P6SM BKN060 OVC100
     FM062000 23006KT P6SM BKN120=



000
FTUS43 KDTX 061604 AAA
TAFMBS
TAF AMD
KMBS 061604Z 0616/0712 24012G20KT P6SM BKN060 OVC100
     FM062000 23006KT P6SM BKN120=



000
FTUS43 KDTX 061601 AAA
TAFDET
TAF AMD
KDET 061601Z 0616/0712 25011KT P6SM FEW070
     FM062000 23006KT P6SM BKN120=



000
FTUS43 KDTX 061505 AAA
TAFDTW
TAF AMD
KDTW 061505Z 0615/0718 23011KT P6SM FEW070
     FM062000 20006KT P6SM BKN120
     FM071400 20012G20KT P6SM OVC100=



000
FTUS43 KDTX 061505 AAA
TAFDTW
TAF AMD
KDTW 061505Z 0615/0718 23011KT P6SM FEW070
     FM062000 20006KT P6SM BKN120
     FM071400 20012G20KT P6SM OVC100=



000
FTUS43 KDTX 061127
TAFFNT
TAF
KFNT 061127Z 0612/0712 24010KT P6SM OVC080
     FM061700 24012G18KT P6SM SCT040 BKN060
     FM062200 23010KT P6SM FEW040=



000
FTUS43 KDTX 061127
TAFMBS
TAF
KMBS 061127Z 0612/0712 22010KT P6SM OVC080
     FM061700 24012G20KT P6SM SCT035 BKN060
     FM062200 22010KT P6SM SCT040=



000
FTUS43 KDTX 061127
TAFDET
TAF
KDET 061127Z 0612/0712 24010KT P6SM BKN070
      TEMPO 0612/0614 6SM BR SKC=



000
FTUS43 KDTX 061127
TAFDTW
TAF
KDTW 061127Z 0612/0718 24010KT P6SM BKN070
      TEMPO 0612/0614 6SM BR SKC=



000
FTUS43 KDTX 061127
TAFMBS
TAF
KMBS 061127Z 0612/0712 22010KT P6SM OVC080
     FM061700 24012G20KT P6SM SCT035 BKN060
     FM062200 22010KT P6SM SCT040=



000
FTUS43 KDTX 061127
TAFFNT
TAF
KFNT 061127Z 0612/0712 24010KT P6SM OVC080
     FM061700 24012G18KT P6SM SCT040 BKN060
     FM062200 23010KT P6SM FEW040=



000
FTUS43 KDTX 061127
TAFDTW
TAF
KDTW 061127Z 0612/0718 24010KT P6SM BKN070
      TEMPO 0612/0614 6SM BR SKC=



000
FTUS43 KDTX 061127
TAFDET
TAF
KDET 061127Z 0612/0712 24010KT P6SM BKN070
      TEMPO 0612/0614 6SM BR SKC=



    US Dept of Commerce
    National Oceanic and Atmospheric Administration
    National Weather Service
    1325 East West Highway
    Silver Spring, MD 20910
    Page Author: NWS Internet Services Team
Disclaimer
Information Quality
Credits
Glossary
Privacy Policy
Freedom of Information Act (FOIA)
About Us
Career Opportunities